YO9IPZ-13 Weather Reports


Display with metric or nautical units.
time (UTC)temp
F
wind
direction
speed
MPH
gust
MPH
rain 1hr
in
rain 24hr
in
rain mn
in
humidity
%
barometer
mb
20181121195023 54 19 8.0 12.0 0.04 2.02 1.99 96 1021.0
20181121194022 54 21 8.0 14.0 0.04 2.02 1.99 96 1021.0
20181121193519 54 21 6.0 12.0 0.00 1.98 1.95 96 1021.0
20181121193024 55 19 7.0 15.0 0.00 1.98 1.95 96 1021.0
20181121192518 55 40 6.0 10.0 0.00 1.98 1.95 96 1021.0
20181121192019 55 16 7.0 12.0 0.00 1.98 1.95 96 1021.0
20181121191544 55 21 8.0 12.0 0.00 1.98 1.95 96 1021.0
20181121191022 55 20 7.0 12.0 0.00 1.98 1.95 96 1021.0
20181121190525 55 16 7.0 10.0 0.00 1.98 1.95 96 1021.0
20181121190019 55 22 9.0 12.0 0.13 2.03 1.95 96 1021.0
20181121185525 55 28 8.0 14.0 0.13 2.03 1.95 96 1021.0
20181121184042 55 23 7.0 12.0 0.08 1.98 1.90 96 1021.0
20181121183521 55 32 5.0 10.0 0.04 1.95 1.85 96 1021.0
20181121183016 55 23 7.0 10.0 0.04 1.95 1.85 96 1021.0
20181121182519 55 32 7.0 10.0 0.04 1.95 1.85 96 1021.0
20181121182023 55 27 7.0 11.0 0.04 1.95 1.85 96 1020.3
20181121181516 55 26 7.0 13.0 0.04 1.95 1.85 96 1020.0
20181121181020 55 31 7.0 12.0 0.04 1.95 1.85 96 1020.0
20181121180524 55 31 7.0 11.0 0.00 1.91 1.81 96 1020.0
20181121180017 55 27 9.0 12.0 0.13 1.91 1.81 96 1020.0
20181121175520 55 23 9.0 15.0 0.08 1.86 1.77 96 1020.0
20181121175019 56 31 6.0 12.0 0.08 1.86 1.77 96 1020.0
20181121174559 55 23 7.0 10.0 0.08 1.86 1.77 96 1020.0
20181121174017 56 17 6.0 10.0 0.08 1.86 1.77 96 1020.0
20181121173521 56 25 5.0 9.0 0.04 1.82 1.74 96 1020.0
20181121173024 56 27 6.0 8.0 0.04 1.82 1.74 96 1020.0
20181121172517 56 21 5.0 10.0 0.04 1.82 1.74 96 1020.0
20181121172025 56 26 4.0 9.0 0.00 1.78 1.69 96 1020.0
20181121171519 56 35 6.0 14.0 0.00 1.78 1.69 96 1020.0
20181121171017 56 20 5.0 8.0 0.00 1.78 1.69 96 1020.0
20181121170517 56 26 5.0 12.0 0.00 1.78 1.69 96 1020.0
20181121170022 56 25 6.0 15.0 0.08 1.77 1.69 96 1020.0
20181121165516 56 25 4.0 10.0 0.08 1.77 1.69 96 1020.0
20181121165025 56 32 4.0 8.0 0.08 1.77 1.69 96 1020.0
20181121164519 56 18 5.0 12.0 0.08 1.77 1.69 96 1020.0
20181121164016 56 29 5.0 12.0 0.08 1.77 1.69 96 1020.0
20181121163524 56 27 3.0 6.0 0.04 1.74 1.65 96 1020.0
20181121163017 56 24 4.0 10.0 0.04 1.74 1.65 96 1020.0
20181121162522 56 29 4.0 10.0 0.04 1.74 1.65 96 1020.0
20181121162025 56 23 5.0 10.0 0.04 1.74 1.65 96 1019.3
20181121161518 56 15 6.0 12.0 0.04 1.74 1.65 96 1018.9
20181121161024 56 31 4.0 9.0 0.04 1.74 1.65 96 1018.9
20181121160520 56 38 6.0 12.0 0.00 1.69 1.61 96 1018.3
20181121160021 56 34 7.0 12.0 0.08 1.69 1.61 96 1017.9
20181121155022 56 24 7.0 15.0 0.08 1.69 1.61 96 1018.6
20181121154520 56 32 10.0 14.0 0.08 1.69 1.61 96 1018.9
20181121153544 56 28 6.0 13.0 0.08 1.69 1.61 96 1018.9
20181121153018 56 27 8.0 13.0 0.08 1.69 1.61 96 1018.9
20181121152025 56 48 7.0 10.0 0.04 1.65 1.57 96 1018.9
20181121151524 56 38 8.0 13.0 0.04 1.65 1.57 96 1018.9
20181121151045 56 28 9.0 16.0 0.04 1.65 1.57 96 1018.9
20181121150521 56 34 8.0 12.0 0.00 1.61 1.52 96 1019.6
20181121150024 56 31 7.0 12.0 0.17 1.62 1.52 96 1020.0
20181121145029 56 32 6.0 12.0 0.13 1.57 1.49 96 1019.3
20181121144517 56 33 7.0 14.0 0.13 1.57 1.49 96 1018.9
20181121144024 56 38 7.0 13.0 0.08 1.52 1.44 96 1018.9
20181121143525 57 36 5.0 12.0 0.08 1.52 1.44 96 1019.6
20181121143021 57 21 5.0 10.0 0.08 1.52 1.44 96 1020.0
20181121142524 0 19 8.0 9.0 0.04 1.48 1.40 1020.0
20181121142016 57 43 6.0 12.0 0.04 1.48 1.40 96 1018.6
20181121141524 57 28 8.0 12.0 0.04 1.48 1.40 96 1017.9
20181121141017 57 28 7.0 11.0 0.00 1.45 1.36 96 1017.9
20181121140042 57 33 7.0 15.0 0.28 1.41 1.31 96 1018.9
20181121135520 57 26 8.0 11.0 0.25 1.37 1.27 96 1018.9
20181121135016 57 22 8.0 12.0 0.25 1.37 1.27 96 1018.9
20181121134519 57 21 8.0 12.0 0.21 1.33 1.24 96 1018.9
20181121134020 57 33 6.0 14.0 0.17 1.29 1.19 96 1018.9
20181121133517 57 38 8.0 16.0 0.17 1.29 1.19 96 1018.9
20181121133020 57 36 7.0 12.0 0.12 1.24 1.14 96 1018.9
20181121132021 57 25 6.0 14.0 0.08 1.20 1.11 96 1018.3
20181121131517 57 50 7.0 14.0 0.08 1.20 1.11 96 1017.9
20181121130516 57 33 6.0 10.0 0.04 1.16 1.06 96 1018.6
20181121130016 58 35 7.0 13.0 0.21 1.11 1.02 96 1018.9
20181121125025 58 36 6.0 12.0 0.17 1.07 0.99 96 1018.9
20181121124517 58 30 5.0 9.0 0.13 1.04 0.94 96 1018.9
20181121124023 58 21 6.0 12.0 0.08 0.98 0.90 96 1018.9
20181121123518 58 23 6.0 10.0 0.08 0.98 0.90 96 1018.9
20181121123015 58 26 7.0 13.0 0.04 0.95 0.86 96 1018.9
20181121122517 58 38 6.0 13.0 0.04 0.95 0.86 96 1018.9
20181121122023 58 31 7.0 11.0 0.04 0.95 0.86 96 1018.3
20181121121515 58 45 7.0 10.0 0.00 0.90 0.81 96 1017.9
20181121121040 58 28 7.0 13.0 0.00 0.90 0.81 96 1017.9
20181121120524 58 32 7.0 13.0 0.00 0.90 0.81 96 1018.6
20181121120019 58 37 7.0 13.0 0.17 0.90 0.81 96 1019.0
20181121115543 58 27 6.0 10.0 0.13 0.87 0.77 96 1019.0
20181121114522 58 24 6.0 12.0 0.13 0.87 0.77 96 1019.0
20181121114045 58 40 6.0 10.0 0.13 0.87 0.77 96 1019.0
20181121113518 58 26 6.0 12.0 0.13 0.87 0.77 96 1018.9
20181121113019 58 30 6.0 10.0 0.08 0.81 0.73 96 1018.9
20181121112542 58 38 5.0 10.0 0.08 0.81 0.73 96 1018.9
20181121112024 57 34 5.0 8.0 0.04 0.77 0.69 96 1018.9
20181121111517 57 37 5.0 12.0 0.04 0.77 0.69 96 1018.9
20181121111023 57 28 6.0 10.0 0.04 0.77 0.69 96 1018.9
20181121110524 57 38 5.0 8.0 0.21 0.75 0.65 96 1018.9
20181121110020 57 36 4.0 7.0 0.21 0.75 0.65 96 1018.9
20181121105040 57 30 5.0 8.0 0.17 0.71 0.61 96 1018.9
20181121104522 57 33 5.0 7.0 0.17 0.71 0.61 96 1018.9
20181121104036 57 32 4.0 9.0 0.13 0.67 0.57 96 1018.9
20181121103523 57 39 4.0 7.0 0.13 0.67 0.57 96 1018.9
20181121103024 57 32 4.0 7.0 0.08 0.62 0.52 96 1018.9
20181121102517 57 36 4.0 8.0 0.08 0.62 0.52 96 1018.9
20181121102044 57 34 4.0 7.0 0.04 0.58 0.48 96 1018.9
20181121101519 57 41 4.0 10.0 0.04 0.58 0.48 96 1018.9
20181121101025 57 30 5.0 8.0 0.00 0.54 0.44 96 1018.9
20181121100524 57 44 4.0 9.0 0.00 0.54 0.44 96 1018.3
20181121100025 57 37 3.0 8.0 0.13 0.50 0.40 96 1017.9
20181121095524 57 30 4.0 8.0 0.13 0.50 0.40 96 1017.9
20181121095020 57 39 4.0 7.0 0.08 0.45 0.36 96 1018.6
20181121094545 57 37 3.0 8.0 0.08 0.45 0.36 96 1018.9
20181121094019 57 44 4.0 7.0 0.08 0.45 0.36 96 1018.9
20181121093522 57 45 5.0 12.0 0.04 0.40 0.32 96 1018.9
20181121093037 56 39 5.0 8.0 0.04 0.40 0.32 96 1018.9
20181121092520 56 41 4.0 9.0 0.04 0.40 0.32 96 1018.9
20181121092017 56 49 4.0 8.0 0.04 0.40 0.32 96 1018.9
20181121091519 56 35 4.0 6.0 0.04 0.40 0.32 96 1018.9
20181121091025 56 42 4.0 6.0 0.00 0.37 0.27 96 1018.9
20181121090539 56 31 3.0 7.0 0.08 0.37 0.27 96 1019.6
20181121090017 56 46 5.0 7.0 0.08 0.37 0.27 96 1020.0
20181121085516 56 32 5.0 12.0 0.08 0.37 0.27 96 1020.0
20181121085019 56 45 5.0 8.0 0.08 0.37 0.27 96 1020.0
20181121084517 56 34 3.0 9.0 0.08 0.37 0.27 96 1020.0
20181121084039 56 36 4.0 8.0 0.08 0.37 0.27 96 1020.0
20181121083518 56 29 4.0 9.0 0.08 0.37 0.27 96 1020.0
20181121083019 56 43 4.0 7.0 0.04 0.32 0.23 96 1020.0
20181121082521 56 40 3.0 7.0 0.04 0.32 0.23 96 1020.0
20181121082016 56 27 5.0 10.0 0.04 0.32 0.23 96 1019.3
20181121081539 56 36 2.0 5.0 0.00 0.28 0.19 96 1018.9
20181121081024 56 36 3.0 6.0 0.00 0.28 0.19 96 1018.9
20181121080536 56 39 3.0 7.0 0.00 0.28 0.19 96 1018.9
20181121080022 56 46 3.0 6.0 0.08 0.28 0.19 96 1018.9
20181121075518 55 39 4.0 7.0 0.08 0.28 0.19 96 1018.9
20181121075016 55 47 4.0 7.0 0.08 0.28 0.19 96 1019.6
20181121074517 55 37 4.0 7.0 0.08 0.28 0.19 96 1020.0
20181121073518 55 49 3.0 6.0 0.04 0.24 0.15 96 1020.0
20181121073019 55 44 3.0 7.0 0.04 0.24 0.15 96 1020.0
20181121072543 55 49 3.0 8.0 0.04 0.24 0.15 96 1020.0
20181121072017 55 38 4.0 10.0 0.04 0.24 0.15 96 1019.3
20181121071523 55 41 3.0 9.0 0.04 0.24 0.15 96 1018.9
20181121071025 55 52 3.0 7.0 0.00 0.20 0.11 97 1018.9
20181121070522 55 63 4.0 9.0 0.00 0.20 0.11 97 1019.6
20181121070024 55 34 3.0 6.0 0.00 0.20 0.11 97 1020.0
20181121065520 55 66 4.0 6.0 0.00 0.20 0.11 96 1020.0
20181121055020 54 65 4.0 10.0 0.00 0.20 0.11 96 1020.0
20181121054519 54 50 5.0 10.0 0.00 0.20 0.11 96 1020.0
20181121054018 54 37 4.0 8.0 0.00 0.20 0.11 96 1020.0
20181121053024 54 52 5.0 10.0 0.00 0.20 0.11 96 1020.0
20181121052524 54 50 4.0 7.0 0.00 0.20 0.11 96 1020.0
20181121052019 54 53 5.0 8.0 0.00 0.20 0.11 96 1020.0
20181121051020 54 69 5.0 5.0 0.03 0.20 0.11 96 1020.0
20181121050544 54 55 4.0 7.0 0.00 0.20 0.11 96 1020.0
20181121050018 53 59 4.0 9.0 0.04 0.21 0.11 96 1020.0
20181121045045 53 40 4.0 8.0 0.00 0.17 0.07 96 1020.0
20181121044519 53 54 3.0 7.0 0.00 0.17 0.07 96 1020.0
20181121044020 53 45 4.0 8.0 0.00 0.17 0.07 96 1020.0
20181121043025 53 50 3.0 8.0 0.00 0.17 0.07 96 1020.0
20181121042518 53 61 4.0 10.0 0.00 0.17 0.07 96 1020.0
20181121042020 53 58 4.0 7.0 0.00 0.17 0.07 96 1020.0
20181121041019 53 69 3.0 8.0 0.00 0.17 0.07 96 1020.0
20181121040522 53 57 4.0 8.0 0.00 0.17 0.07 96 1020.0
20181121040017 53 68 4.0 9.0 0.00 0.17 0.07 96 1020.0
20181121035516 53 60 2.0 5.0 0.00 0.17 0.07 96 1020.0
20181121035018 53 62 4.0 8.0 0.00 0.17 0.07 96 1020.6
20181121034523 53 53 4.0 8.0 0.00 0.17 0.07 96 1021.0
20181121034036 53 61 3.0 7.0 0.00 0.17 0.07 96 1021.0
20181121033521 53 62 4.0 7.0 0.00 0.17 0.07 96 1021.0
20181121033044 53 56 3.0 7.0 0.00 0.17 0.07 96 1021.0
20181121032540 53 48 3.0 7.0 0.00 0.17 0.07 96 1021.0
20181121031517 53 54 3.0 8.0 0.00 0.17 0.07 96 1021.0
20181121031018 53 48 4.0 11.0 0.00 0.17 0.07 96 1021.0
20181121030524 53 40 4.0 8.0 0.00 0.17 0.07 96 1021.0
20181121025542 52 57 5.0 10.0 0.04 0.16 0.07 96 1021.0
20181121025100 52 43 3.0 8.0 0.04 0.16 0.07 96 1021.0
20181121024524 52 48 4.0 8.0 0.04 0.16 0.07 96 1021.0
20181121024018 52 42 4.0 6.0 0.04 0.16 0.07 96 1021.0
20181121023025 52 50 3.0 5.0 0.04 0.16 0.07 96 1021.0
20181121022518 52 45 2.0 5.0 0.00 0.12 0.03 96 1021.0
20181121022023 52 49 3.0 7.0 0.00 0.12 0.03 96 1021.0
20181121021518 52 51 3.0 6.0 0.00 0.12 0.03 96 1021.0
20181121021025 52 58 3.0 6.0 0.00 0.12 0.03 96 1021.0
20181121020100 52 66 4.0 8.0 0.00 0.12 0.03 96 1020.0
20181121015520 53 54 3.0 7.0 0.00 0.12 0.03 96 1020.0
20181121015021 53 70 2.0 6.0 0.00 0.12 0.03 96 1020.0
20181121014525 53 63 4.0 8.0 0.00 0.12 0.03 96 1020.0
20181121014017 53 68 3.0 6.0 0.00 0.12 0.03 96 1020.0
20181121013520 53 68 3.0 6.0 0.00 0.12 0.03 96 1020.6
20181121013016 53 50 3.0 5.0 0.00 0.12 0.03 96 1021.0
20181121012519 53 58 3.0 6.0 0.00 0.12 0.03 96 1021.0
20181121012029 53 66 3.0 7.0 0.00 0.12 0.03 96 1021.0
20181121011024 53 47 2.0 5.0 0.00 0.12 0.03 96 1021.0
20181121010520 53 55 3.0 7.0 0.00 0.12 0.03 96 1021.6
20181121005516 53 47 2.0 5.0 0.00 0.12 0.03 96 1022.0
20181121005018 53 56 2.0 6.0 0.00 0.12 0.03 96 1022.0
20181121004021 53 51 3.0 8.0 0.00 0.12 0.03 96 1022.0
20181121003525 53 37 3.0 6.0 0.00 0.12 0.03 96 1022.0
20181121003019 53 44 3.0 7.0 0.00 0.12 0.03 96 1022.0
20181121002524 53 55 3.0 7.0 0.00 0.12 0.03 96 1022.0
20181121002017 53 54 3.0 6.0 0.00 0.12 0.03 96 1022.6
20181121001520 53 54 4.0 7.0 0.00 0.12 0.03 96 1023.0
20181121001022 53 59 3.0 8.0 0.00 0.12 0.03 96 1023.0
20181121000521 53 50 4.0 7.0 0.00 0.12 0.03 96 1023.0
20181121000019 53 60 3.0 6.0 0.00 0.12 0.03 96 1023.0
20181120235519 53 50 3.0 7.0 0.00 0.12 0.03 96 1023.0
20181120235024 53 51 3.0 6.0 0.00 0.12 0.03 96 1022.3
20181120234516 52 49 3.0 6.0 0.00 0.12 0.03 96 1022.0
20181120234021 52 47 3.0 6.0 0.00 0.12 0.03 96 1022.0
20181120233524 52 43 3.0 6.0 0.00 0.12 0.03 96 1022.6
20181120233016 52 47 4.0 7.0 0.00 0.12 0.03 96 1023.0
20181120232524 52 49 3.0 9.0 0.00 0.12 0.03 96 1023.0
20181120232019 52 54 2.0 5.0 0.00 0.12 0.03 96 1023.0
20181120231516 52 63 3.0 6.0 0.00 0.12 0.03 96 1023.0
20181120230520 52 49 2.0 7.0 0.00 0.12 0.03 96 1023.0
20181120230019 52 51 5.0 10.0 0.04 0.12 0.03 96 1023.0
20181120225521 52 40 3.0 7.0 0.04 0.12 0.03 96 1023.0
20181120225025 52 60 3.0 5.0 0.04 0.12 0.03 96 1023.0
20181120224519 52 52 4.0 7.0 0.04 0.12 0.03 96 1023.0
20181120224017 52 58 4.0 9.0 0.04 0.12 0.03 96 1023.0
20181120223517 52 59 3.0 7.0 0.04 0.12 0.03 96 1023.0
20181120223043 52 48 3.0 5.0 0.00 0.08 0.00 96 1023.0
20181120222524 52 44 3.0 7.0 0.00 0.08 0.00 96 1023.0
20181120222021 52 58 3.0 6.0 0.00 0.08 0.00 96 1023.0
20181120221520 52 44 3.0 10.0 0.00 0.08 0.00 96 1023.0
20181120221017 52 60 4.0 8.0 0.00 0.08 0.00 96 1023.0
20181120220524 52 56 3.0 7.0 0.00 0.08 0.00 96 1023.0
20181120220038 52 50 4.0 7.0 0.00 0.08 0.00 96 1023.0
20181120215522 52 62 2.0 7.0 0.00 0.08 0.09 96 1023.0
20181120215021 52 61 3.0 5.0 0.00 0.08 0.09 96 1022.3
20181120214520 52 55 3.0 7.0 0.00 0.08 0.09 96 1022.0
20181120214024 52 45 3.0 6.0 0.00 0.08 0.09 96 1022.0
20181120213023 52 66 4.0 9.0 0.00 0.08 0.09 96 1022.0
20181120212516 52 49 3.0 6.0 0.00 0.08 0.09 96 1022.0
20181120211018 52 71 3.0 10.0 0.00 0.08 0.09 96 1023.0
20181120210519 52 57 3.0 6.0 0.00 0.08 0.09 96 1023.0
20181120210019 52 63 3.0 6.0 0.04 0.08 0.09 95 1023.0
20181120205544 52 74 2.0 6.0 0.04 0.08 0.09 95 1023.0
20181120205017 52 79 2.0 7.0 0.00 0.04 0.03 95 1023.0
20181120204523 52 75 3.0 7.0 0.00 0.04 0.03 95 1023.0
20181120204024 52 72 3.0 6.0 0.00 0.04 0.03 95 1023.0
20181120203522 52 75 2.0 7.0 0.00 0.04 0.03 95 1023.0
20181120203025 52 72 3.0 7.0 0.00 0.04 0.03 95 1023.0
20181120202518 52 64 3.0 7.0 0.00 0.04 0.03 95 1023.0
20181120202019 52 61 3.0 6.0 0.00 0.04 0.03 95 1023.0
20181120201038 52 71 3.0 8.0 0.00 0.04 0.03 95 1023.0
20181120200021 51 81 3.0 7.0 0.00 0.04 0.03 95 1023.0
20181120195525 51 75 3.0 8.0 0.00 0.04 0.03 95 1023.0